sensor_id;sensor_type;location;lat;lon;timestamp;pressure;altitude;pressure_sealevel;temperature;humidity
70407;BME280;57821;52.202;0.154;2023-04-03T00:01:39;103225.13;;;2.78;78.71
70407;BME280;57821;52.202;0.154;2023-04-03T00:04:26;103229.25;;;2.76;78.91
70407;BME280;57821;52.202;0.154;2023-04-03T00:07:13;103213.47;;;2.70;79.54
70407;BME280;57821;52.202;0.154;2023-04-03T00:10:00;103221.38;;;2.73;79.04
70407;BME280;57821;52.202;0.154;2023-04-03T00:12:46;103216.94;;;2.70;79.89
70407;BME280;57821;52.202;0.154;2023-04-03T00:15:34;103222.75;;;2.68;79.68
70407;BME280;57821;52.202;0.154;2023-04-03T00:18:22;103225.09;;;2.65;79.49
70407;BME280;57821;52.202;0.154;2023-04-03T00:21:10;103217.00;;;2.59;79.04
70407;BME280;57821;52.202;0.154;2023-04-03T00:23:58;103220.25;;;2.56;80.00
70407;BME280;57821;52.202;0.154;2023-04-03T00:26:45;103217.34;;;2.52;79.64
70407;BME280;57821;52.202;0.154;2023-04-03T00:29:33;103224.16;;;2.51;79.98
70407;BME280;57821;52.202;0.154;2023-04-03T00:32:20;103224.84;;;2.48;80.12
70407;BME280;57821;52.202;0.154;2023-04-03T00:35:07;103218.59;;;2.45;80.01
70407;BME280;57821;52.202;0.154;2023-04-03T00:37:54;103221.75;;;2.41;79.63
70407;BME280;57821;52.202;0.154;2023-04-03T00:40:45;103220.44;;;2.34;80.23
70407;BME280;57821;52.202;0.154;2023-04-03T00:43:33;103221.03;;;2.30;80.32
70407;BME280;57821;52.202;0.154;2023-04-03T00:46:19;103212.94;;;2.24;80.37
70407;BME280;57821;52.202;0.154;2023-04-03T00:49:06;103216.25;;;2.23;80.02
70407;BME280;57821;52.202;0.154;2023-04-03T00:51:54;103211.50;;;2.16;80.18
70407;BME280;57821;52.202;0.154;2023-04-03T00:54:42;103206.94;;;2.12;80.68
70407;BME280;57821;52.202;0.154;2023-04-03T00:57:31;103216.31;;;2.12;80.53
70407;BME280;57821;52.202;0.154;2023-04-03T01:00:20;103206.66;;;2.08;80.93
70407;BME280;57821;52.202;0.154;2023-04-03T01:03:07;103206.34;;;2.03;80.98
70407;BME280;57821;52.202;0.154;2023-04-03T01:05:57;103210.44;;;2.01;80.79
70407;BME280;57821;52.202;0.154;2023-04-03T01:08:47;103215.25;;;1.96;81.01
70407;BME280;57821;52.202;0.154;2023-04-03T01:11:35;103212.38;;;1.92;81.62
70407;BME280;57821;52.202;0.154;2023-04-03T01:14:22;103215.72;;;1.91;81.52
70407;BME280;57821;52.202;0.154;2023-04-03T01:23:29;103210.50;;;1.78;82.04
70407;BME280;57821;52.202;0.154;2023-04-03T01:26:19;103207.75;;;1.75;81.56
70407;BME280;57821;52.202;0.154;2023-04-03T01:29:06;103207.50;;;1.72;81.80
70407;BME280;57821;52.202;0.154;2023-04-03T01:31:55;103199.28;;;1.64;81.77
70407;BME280;57821;52.202;0.154;2023-04-03T01:34:43;103205.41;;;1.66;81.49
70407;BME280;57821;52.202;0.154;2023-04-03T01:37:30;103208.63;;;1.63;81.54
70407;BME280;57821;52.202;0.154;2023-04-03T01:40:18;103206.63;;;1.59;81.95
70407;BME280;57821;52.202;0.154;2023-04-03T01:43:06;103204.75;;;1.57;81.93
70407;BME280;57821;52.202;0.154;2023-04-03T01:45:53;103193.28;;;1.52;82.38
70407;BME280;57821;52.202;0.154;2023-04-03T01:48:40;103193.28;;;1.52;82.44
70407;BME280;57821;52.202;0.154;2023-04-03T01:51:27;103196.53;;;1.49;82.17
70407;BME280;57821;52.202;0.154;2023-04-03T01:54:14;103194.56;;;1.45;82.40
70407;BME280;57821;52.202;0.154;2023-04-03T01:57:01;103198.84;;;1.46;83.08
70407;BME280;57821;52.202;0.154;2023-04-03T01:59:48;103186.66;;;1.42;82.65
70407;BME280;57821;52.202;0.154;2023-04-03T02:02:35;103197.75;;;1.43;82.60
70407;BME280;57821;52.202;0.154;2023-04-03T02:05:22;103197.75;;;1.43;82.84
70407;BME280;57821;52.202;0.154;2023-04-03T02:08:09;103183.88;;;1.39;82.89
70407;BME280;57821;52.202;0.154;2023-04-03T02:10:56;103193.22;;;1.39;83.33
70407;BME280;57821;52.202;0.154;2023-04-03T02:13:43;103200.66;;;1.36;82.83
70407;BME280;57821;52.202;0.154;2023-04-03T02:16:30;103197.13;;;1.34;83.14
70407;BME280;57821;52.202;0.154;2023-04-03T02:19:16;103200.22;;;1.30;83.21
70407;BME280;57821;52.202;0.154;2023-04-03T02:22:04;103196.56;;;1.26;82.85
70407;BME280;57821;52.202;0.154;2023-04-03T02:24:51;103201.34;;;1.21;83.07
70407;BME280;57821;52.202;0.154;2023-04-03T02:27:40;103191.75;;;1.19;83.21
70407;BME280;57821;52.202;0.154;2023-04-03T02:30:26;103200.19;;;1.18;82.90
70407;BME280;57821;52.202;0.154;2023-04-03T02:33:13;103189.31;;;1.09;83.44
70407;BME280;57821;52.202;0.154;2023-04-03T02:36:00;103200.53;;;1.11;83.76
70407;BME280;57821;52.202;0.154;2023-04-03T02:38:47;103201.34;;;1.10;84.00
70407;BME280;57821;52.202;0.154;2023-04-03T02:41:34;103194.19;;;1.06;83.58
70407;BME280;57821;52.202;0.154;2023-04-03T02:44:23;103195.78;;;1.04;83.86
70407;BME280;57821;52.202;0.154;2023-04-03T02:47:11;103194.63;;;1.00;84.25
70407;BME280;57821;52.202;0.154;2023-04-03T02:49:58;103199.09;;;1.03;84.23
70407;BME280;57821;52.202;0.154;2023-04-03T02:52:45;103198.84;;;1.00;84.60
70407;BME280;57821;52.202;0.154;2023-04-03T02:55:32;103203.19;;;1.01;84.91
70407;BME280;57821;52.202;0.154;2023-04-03T02:58:19;103196.31;;;1.00;85.12
70407;BME280;57821;52.202;0.154;2023-04-03T03:01:06;103194.56;;;0.99;85.75
70407;BME280;57821;52.202;0.154;2023-04-03T03:03:53;103203.97;;;1.00;85.39
70407;BME280;57821;52.202;0.154;2023-04-03T03:06:39;103192.00;;;0.99;85.87
70407;BME280;57821;52.202;0.154;2023-04-03T03:09:28;103197.44;;;1.03;85.58
70407;BME280;57821;52.202;0.154;2023-04-03T03:12:15;103187.34;;;1.05;85.78
70407;BME280;57821;52.202;0.154;2023-04-03T03:15:02;103182.22;;;1.05;86.00
70407;BME280;57821;52.202;0.154;2023-04-03T03:17:49;103180.44;;;1.04;85.84
70407;BME280;57821;52.202;0.154;2023-04-03T03:20:36;103183.22;;;1.07;85.91
70407;BME280;57821;52.202;0.154;2023-04-03T03:23:25;103181.97;;;1.02;85.72
70407;BME280;57821;52.202;0.154;2023-04-03T03:26:12;103176.88;;;1.02;86.20
70407;BME280;57821;52.202;0.154;2023-04-03T03:28:59;103173.31;;;1.00;85.52
70407;BME280;57821;52.202;0.154;2023-04-03T03:31:47;103180.06;;;0.99;85.64
70407;BME280;57821;52.202;0.154;2023-04-03T03:34:34;103174.09;;;0.99;85.74
70407;BME280;57821;52.202;0.154;2023-04-03T03:37:20;103165.31;;;0.95;86.27
70407;BME280;57821;52.202;0.154;2023-04-03T03:40:08;103175.78;;;0.98;86.33
70407;BME280;57821;52.202;0.154;2023-04-03T03:42:56;103173.09;;;0.97;85.91
70407;BME280;57821;52.202;0.154;2023-04-03T03:45:44;103172.84;;;0.94;86.06
70407;BME280;57821;52.202;0.154;2023-04-03T03:48:31;103176.88;;;0.90;86.51
70407;BME280;57821;52.202;0.154;2023-04-03T03:51:18;103173.53;;;0.91;86.29
70407;BME280;57821;52.202;0.154;2023-04-03T03:54:05;103168.19;;;0.88;86.29
70407;BME280;57821;52.202;0.154;2023-04-03T03:56:53;103169.75;;;0.86;86.06
70407;BME280;57821;52.202;0.154;2023-04-03T03:59:40;103168.63;;;0.82;86.32
70407;BME280;57821;52.202;0.154;2023-04-03T04:02:27;103176.06;;;0.79;86.56
70407;BME280;57821;52.202;0.154;2023-04-03T04:05:15;103167.97;;;0.73;86.14
70407;BME280;57821;52.202;0.154;2023-04-03T04:08:02;103173.72;;;0.71;86.24
70407;BME280;57821;52.202;0.154;2023-04-03T04:10:49;103168.41;;;0.68;86.25
70407;BME280;57821;52.202;0.154;2023-04-03T04:13:37;103163.72;;;0.62;86.03
70407;BME280;57821;52.202;0.154;2023-04-03T04:16:25;103161.47;;;0.55;86.05
70407;BME280;57821;52.202;0.154;2023-04-03T04:19:13;103165.81;;;0.56;86.71
70407;BME280;57821;52.202;0.154;2023-04-03T04:22:02;103164.16;;;0.57;86.74
70407;BME280;57821;52.202;0.154;2023-04-03T04:24:50;103160.25;;;0.50;86.37
70407;BME280;57821;52.202;0.154;2023-04-03T04:27:37;103169.03;;;0.54;86.63
70407;BME280;57821;52.202;0.154;2023-04-03T04:30:25;103167.91;;;0.50;86.88
70407;BME280;57821;52.202;0.154;2023-04-03T04:33:12;103171.22;;;0.49;86.73
70407;BME280;57821;52.202;0.154;2023-04-03T04:36:00;103170.91;;;0.45;86.96
70407;BME280;57821;52.202;0.154;2023-04-03T04:38:48;103171.66;;;0.44;86.64
70407;BME280;57821;52.202;0.154;2023-04-03T04:41:35;103167.44;;;0.44;86.87
70407;BME280;57821;52.202;0.154;2023-04-03T04:44:23;103174.09;;;0.42;86.84
70407;BME280;57821;52.202;0.154;2023-04-03T04:47:10;103164.44;;;0.38;87.34
70407;BME280;57821;52.202;0.154;2023-04-03T04:49:57;103171.97;;;0.36;87.15
70407;BME280;57821;52.202;0.154;2023-04-03T04:52:44;103166.41;;;0.30;87.44
70407;BME280;57821;52.202;0.154;2023-04-03T04:55:31;103170.09;;;0.34;87.22
70407;BME280;57821;52.202;0.154;2023-04-03T04:58:18;103167.53;;;0.34;87.38
70407;BME280;57821;52.202;0.154;2023-04-03T05:01:07;103162.88;;;0.28;87.58
70407;BME280;57821;52.202;0.154;2023-04-03T05:04:00;103167.28;;;0.31;87.78
70407;BME280;57821;52.202;0.154;2023-04-03T05:06:47;103168.06;;;0.30;87.45
70407;BME280;57821;52.202;0.154;2023-04-03T05:09:39;103176.50;;;0.29;87.84
70407;BME280;57821;52.202;0.154;2023-04-03T05:12:26;103179.91;;;0.29;88.27
70407;BME280;57821;52.202;0.154;2023-04-03T05:15:17;103168.72;;;0.27;88.59
70407;BME280;57821;52.202;0.154;2023-04-03T05:18:05;103180.72;;;0.28;88.05
70407;BME280;57821;52.202;0.154;2023-04-03T05:20:52;103175.50;;;0.27;88.46
70407;BME280;57821;52.202;0.154;2023-04-03T05:23:41;103182.25;;;0.26;88.66
70407;BME280;57821;52.202;0.154;2023-04-03T05:26:30;103174.47;;;0.25;88.05
70407;BME280;57821;52.202;0.154;2023-04-03T05:29:17;103174.38;;;0.23;88.66
70407;BME280;57821;52.202;0.154;2023-04-03T05:32:06;103186.34;;;0.24;88.49
70407;BME280;57821;52.202;0.154;2023-04-03T05:34:53;103180.34;;;0.24;88.87
70407;BME280;57821;52.202;0.154;2023-04-03T05:37:40;103179.38;;;0.22;88.73
70407;BME280;57821;52.202;0.154;2023-04-03T05:40:27;103183.78;;;0.24;88.59
70407;BME280;57821;52.202;0.154;2023-04-03T05:43:16;103187.25;;;0.25;88.51
70407;BME280;57821;52.202;0.154;2023-04-03T05:46:03;103194.00;;;0.24;88.34
70407;BME280;57821;52.202;0.154;2023-04-03T05:48:50;103196.56;;;0.24;88.35
70407;BME280;57821;52.202;0.154;2023-04-03T05:51:40;103200.00;;;0.25;89.22
70407;BME280;57821;52.202;0.154;2023-04-03T05:54:49;103199.47;;;0.29;89.29
70407;BME280;57821;52.202;0.154;2023-04-03T05:57:42;103203.00;;;0.31;89.17
70407;BME280;57821;52.202;0.154;2023-04-03T06:00:29;103204.03;;;0.33;89.34
70407;BME280;57821;52.202;0.154;2023-04-03T06:03:20;103198.25;;;0.35;89.47
70407;BME280;57821;52.202;0.154;2023-04-03T06:06:08;103193.41;;;0.38;89.16
70407;BME280;57821;52.202;0.154;2023-04-03T06:08:58;103189.41;;;0.42;89.73
70407;BME280;57821;52.202;0.154;2023-04-03T06:11:47;103186.09;;;0.43;89.67
70407;BME280;57821;52.202;0.154;2023-04-03T06:14:35;103182.13;;;0.47;89.57
70407;BME280;57821;52.202;0.154;2023-04-03T06:17:22;103190.13;;;0.51;89.66
70407;BME280;57821;52.202;0.154;2023-04-03T06:20:09;103193.91;;;0.56;89.82
70407;BME280;57821;52.202;0.154;2023-04-03T06:22:56;103192.56;;;0.61;89.96
70407;BME280;57821;52.202;0.154;2023-04-03T06:25:43;103201.47;;;0.66;90.10
70407;BME280;57821;52.202;0.154;2023-04-03T06:28:30;103201.94;;;0.72;90.23
70407;BME280;57821;52.202;0.154;2023-04-03T06:31:17;103202.38;;;0.78;90.40
70407;BME280;57821;52.202;0.154;2023-04-03T06:34:04;103193.41;;;0.83;90.24
70407;BME280;57821;52.202;0.154;2023-04-03T06:36:55;103197.31;;;0.90;90.35
70407;BME280;57821;52.202;0.154;2023-04-03T06:39:42;103200.97;;;0.94;89.97
70407;BME280;57821;52.202;0.154;2023-04-03T06:42:29;103203.97;;;1.00;90.15
70407;BME280;57821;52.202;0.154;2023-04-03T06:45:29;103207.97;;;1.08;90.54
70407;BME280;57821;52.202;0.154;2023-04-03T06:48:16;103204.22;;;1.14;90.24
70407;BME280;57821;52.202;0.154;2023-04-03T06:51:03;103200.44;;;1.21;90.18
70407;BME280;57821;52.202;0.154;2023-04-03T06:53:51;103195.00;;;1.28;90.12
70407;BME280;57821;52.202;0.154;2023-04-03T06:56:38;103194.66;;;1.35;90.61
70407;BME280;57821;52.202;0.154;2023-04-03T06:59:25;103203.75;;;1.43;90.57
70407;BME280;57821;52.202;0.154;2023-04-03T07:02:12;103205.22;;;1.51;90.54
70407;BME280;57821;52.202;0.154;2023-04-03T07:04:59;103211.09;;;1.62;90.54
70407;BME280;57821;52.202;0.154;2023-04-03T07:07:46;103212.41;;;1.69;90.91
70407;BME280;57821;52.202;0.154;2023-04-03T07:10:32;103212.28;;;1.79;90.70
70407;BME280;57821;52.202;0.154;2023-04-03T07:13:19;103206.81;;;1.86;90.96
70407;BME280;57821;52.202;0.154;2023-04-03T07:16:07;103202.34;;;1.95;90.64
70407;BME280;57821;52.202;0.154;2023-04-03T07:18:54;103216.75;;;2.06;90.48
70407;BME280;57821;52.202;0.154;2023-04-03T07:21:40;103210.59;;;2.16;90.68
70407;BME280;57821;52.202;0.154;2023-04-03T07:24:27;103212.25;;;2.27;90.21
70407;BME280;57821;52.202;0.154;2023-04-03T07:27:14;103213.75;;;2.36;90.61
70407;BME280;57821;52.202;0.154;2023-04-03T07:30:01;103211.03;;;2.46;91.05
70407;BME280;57821;52.202;0.154;2023-04-03T07:32:48;103216.00;;;2.57;90.53
70407;BME280;57821;52.202;0.154;2023-04-03T07:35:35;103217.63;;;2.68;90.67
70407;BME280;57821;52.202;0.154;2023-04-03T07:38:22;103219.22;;;2.79;89.89
70407;BME280;57821;52.202;0.154;2023-04-03T07:41:17;103221.72;;;2.91;90.25
70407;BME280;57821;52.202;0.154;2023-04-03T07:44:05;103221.66;;;3.02;89.64
70407;BME280;57821;52.202;0.154;2023-04-03T07:46:52;103222.34;;;3.13;90.20
70407;BME280;57821;52.202;0.154;2023-04-03T07:49:38;103210.09;;;3.22;89.13
70407;BME280;57821;52.202;0.154;2023-04-03T07:52:25;103222.28;;;3.38;89.44
70407;BME280;57821;52.202;0.154;2023-04-03T07:55:12;103218.88;;;3.52;89.69
70407;BME280;57821;52.202;0.154;2023-04-03T07:57:59;103213.66;;;3.63;88.66
70407;BME280;57821;52.202;0.154;2023-04-03T08:00:46;103212.84;;;3.78;89.15
70407;BME280;57821;52.202;0.154;2023-04-03T08:03:33;103218.66;;;3.88;88.88
70407;BME280;57821;52.202;0.154;2023-04-03T08:06:20;103220.84;;;4.10;88.85
70407;BME280;57821;52.202;0.154;2023-04-03T08:09:23;103217.63;;;4.27;87.73
70407;BME280;57821;52.202;0.154;2023-04-03T08:12:10;103216.88;;;4.43;88.22
70407;BME280;57821;52.202;0.154;2023-04-03T08:14:57;103222.06;;;4.58;88.25
70407;BME280;57821;52.202;0.154;2023-04-03T08:17:44;103213.41;;;4.70;87.71
70407;BME280;57821;52.202;0.154;2023-04-03T08:20:30;103224.75;;;4.88;87.55
70407;BME280;57821;52.202;0.154;2023-04-03T08:23:18;103219.50;;;5.02;87.10
70407;BME280;57821;52.202;0.154;2023-04-03T08:26:11;103228.38;;;5.21;87.14
70407;BME280;57821;52.202;0.154;2023-04-03T08:28:58;103226.75;;;5.38;85.94
70407;BME280;57821;52.202;0.154;2023-04-03T08:31:45;103230.03;;;5.50;85.92
70407;BME280;57821;52.202;0.154;2023-04-03T08:34:32;103221.41;;;5.64;86.33
70407;BME280;57821;52.202;0.154;2023-04-03T08:37:19;103224.16;;;5.84;85.85
70407;BME280;57821;52.202;0.154;2023-04-03T08:40:07;103221.69;;;6.00;85.09
70407;BME280;57821;52.202;0.154;2023-04-03T08:43:14;103226.84;;;6.16;84.50
70407;BME280;57821;52.202;0.154;2023-04-03T08:46:11;103212.19;;;6.31;84.35
70407;BME280;57821;52.202;0.154;2023-04-03T08:49:00;103225.38;;;6.53;83.75
70407;BME280;57821;52.202;0.154;2023-04-03T08:51:48;103224.53;;;6.71;83.67
70407;BME280;57821;52.202;0.154;2023-04-03T08:55:03;103220.41;;;6.90;83.85
70407;BME280;57821;52.202;0.154;2023-04-03T08:58:00;103224.72;;;7.08;82.53
70407;BME280;57821;52.202;0.154;2023-04-03T09:00:56;103221.25;;;7.25;82.65
70407;BME280;57821;52.202;0.154;2023-04-03T09:03:43;103221.34;;;7.44;82.20
70407;BME280;57821;52.202;0.154;2023-04-03T09:06:31;103220.47;;;7.61;81.67
70407;BME280;57821;52.202;0.154;2023-04-03T09:09:32;103225.59;;;7.79;82.00
70407;BME280;57821;52.202;0.154;2023-04-03T09:12:27;103218.72;;;7.97;81.69
70407;BME280;57821;52.202;0.154;2023-04-03T09:15:22;103232.06;;;8.25;81.36
70407;BME280;57821;52.202;0.154;2023-04-03T09:18:30;103223.69;;;8.50;81.84
70407;BME280;57821;52.202;0.154;2023-04-03T09:21:24;103215.91;;;8.89;83.33
70407;BME280;57821;52.202;0.154;2023-04-03T09:24:15;103223.38;;;9.45;82.56
70407;BME280;57821;52.202;0.154;2023-04-03T09:27:06;103216.16;;;10.03;82.48
70407;BME280;57821;52.202;0.154;2023-04-03T09:29:56;103217.84;;;10.73;82.10
70407;BME280;57821;52.202;0.154;2023-04-03T09:32:46;103220.78;;;11.34;78.22
70407;BME280;57821;52.202;0.154;2023-04-03T09:35:36;103218.81;;;11.80;75.92
70407;BME280;57821;52.202;0.154;2023-04-03T09:38:34;103211.69;;;12.33;73.86
70407;BME280;57821;52.202;0.154;2023-04-03T09:41:20;103201.13;;;12.60;72.00
70407;BME280;57821;52.202;0.154;2023-04-03T09:44:22;103207.19;;;12.92;69.10
70407;BME280;57821;52.202;0.154;2023-04-03T09:53:05;103190.34;;;13.48;66.53
70407;BME280;57821;52.202;0.154;2023-04-03T09:55:52;103184.56;;;13.61;66.33
70407;BME280;57821;52.202;0.154;2023-04-03T09:58:40;103197.03;;;13.74;64.06
70407;BME280;57821;52.202;0.154;2023-04-03T10:01:39;103187.59;;;13.79;61.15
70407;BME280;57821;52.202;0.154;2023-04-03T10:04:37;103195.84;;;14.01;59.01
70407;BME280;57821;52.202;0.154;2023-04-03T10:07:34;103186.94;;;14.34;58.92
70407;BME280;57821;52.202;0.154;2023-04-03T10:10:22;103189.22;;;14.60;57.73
70407;BME280;57821;52.202;0.154;2023-04-03T10:16:10;103190.97;;;14.61;55.50
70407;BME280;57821;52.202;0.154;2023-04-03T10:19:09;103184.28;;;14.76;55.15
70407;BME280;57821;52.202;0.154;2023-04-03T10:22:07;103187.31;;;15.01;54.43
70407;BME280;57821;52.202;0.154;2023-04-03T10:33:47;103187.25;;;16.20;51.05
70407;BME280;57821;52.202;0.154;2023-04-03T10:43:41;103175.59;;;15.92;46.81
70407;BME280;57821;52.202;0.154;2023-04-03T10:46:43;103177.34;;;15.91;46.87
70407;BME280;57821;52.202;0.154;2023-04-03T10:49:42;103170.63;;;16.13;47.15
70407;BME280;57821;52.202;0.154;2023-04-03T10:52:45;103174.97;;;16.14;45.76
70407;BME280;57821;52.202;0.154;2023-04-03T10:58:32;103172.88;;;15.83;46.81
70407;BME280;57821;52.202;0.154;2023-04-03T11:01:24;103172.09;;;15.91;46.68
70407;BME280;57821;52.202;0.154;2023-04-03T11:04:16;103163.56;;;16.08;45.62
70407;BME280;57821;52.202;0.154;2023-04-03T11:07:11;103155.78;;;16.12;44.75
70407;BME280;57821;52.202;0.154;2023-04-03T11:10:24;103165.41;;;16.15;43.57
70407;BME280;57821;52.202;0.154;2023-04-03T11:16:46;103152.44;;;16.24;44.74
70407;BME280;57821;52.202;0.154;2023-04-03T11:22:42;103151.97;;;15.86;43.05
70407;BME280;57821;52.202;0.154;2023-04-03T11:25:31;103150.00;;;15.68;44.34
70407;BME280;57821;52.202;0.154;2023-04-03T11:28:19;103148.16;;;15.59;44.30
70407;BME280;57821;52.202;0.154;2023-04-03T11:34:36;103138.00;;;15.22;45.16
70407;BME280;57821;52.202;0.154;2023-04-03T11:37:42;103134.25;;;15.05;44.65
70407;BME280;57821;52.202;0.154;2023-04-03T11:40:32;103138.31;;;14.85;44.88
70407;BME280;57821;52.202;0.154;2023-04-03T11:43:29;103127.34;;;14.54;45.68
70407;BME280;57821;52.202;0.154;2023-04-03T11:46:17;103126.97;;;14.36;46.41
70407;BME280;57821;52.202;0.154;2023-04-03T11:49:03;103124.16;;;14.27;46.12
70407;BME280;57821;52.202;0.154;2023-04-03T11:51:50;103119.53;;;14.11;46.49
70407;BME280;57821;52.202;0.154;2023-04-03T12:03:57;103109.94;;;14.56;46.66
70407;BME280;57821;52.202;0.154;2023-04-03T12:12:30;103108.59;;;15.37;45.13
70407;BME280;57821;52.202;0.154;2023-04-03T12:15:41;103103.47;;;15.46;45.13
70407;BME280;57821;52.202;0.154;2023-04-03T12:18:40;103091.56;;;15.65;45.29
70407;BME280;57821;52.202;0.154;2023-04-03T12:27:34;103099.47;;;15.71;43.33
70407;BME280;57821;52.202;0.154;2023-04-03T12:30:25;103081.97;;;15.64;43.91
70407;BME280;57821;52.202;0.154;2023-04-03T12:33:23;103086.13;;;15.51;44.09
70407;BME280;57821;52.202;0.154;2023-04-03T12:36:28;103078.91;;;15.33;43.91
70407;BME280;57821;52.202;0.154;2023-04-03T12:45:23;103083.66;;;15.00;44.23
70407;BME280;57821;52.202;0.154;2023-04-03T12:48:15;103073.94;;;14.90;44.18
70407;BME280;57821;52.202;0.154;2023-04-03T12:51:03;103080.13;;;14.95;44.64
70407;BME280;57821;52.202;0.154;2023-04-03T12:53:52;103066.88;;;14.83;44.37
70407;BME280;57821;52.202;0.154;2023-04-03T12:56:44;103078.09;;;14.77;44.63
70407;BME280;57821;52.202;0.154;2023-04-03T12:59:31;103071.09;;;14.73;45.51
70407;BME280;57821;52.202;0.154;2023-04-03T13:02:22;103061.59;;;14.78;45.72
70407;BME280;57821;52.202;0.154;2023-04-03T13:05:13;103051.38;;;14.95;45.48
70407;BME280;57821;52.202;0.154;2023-04-03T13:08:05;103049.06;;;15.16;45.07
70407;BME280;57821;52.202;0.154;2023-04-03T13:10:59;103057.13;;;15.31;44.39
70407;BME280;57821;52.202;0.154;2023-04-03T13:13:59;103047.56;;;15.35;43.55
70407;BME280;57821;52.202;0.154;2023-04-03T13:16:54;103056.34;;;15.40;42.94
70407;BME280;57821;52.202;0.154;2023-04-03T13:19:42;103048.56;;;15.44;43.26
70407;BME280;57821;52.202;0.154;2023-04-03T13:22:37;103044.34;;;15.52;43.34
70407;BME280;57821;52.202;0.154;2023-04-03T13:25:30;103029.69;;;15.68;43.13
70407;BME280;57821;52.202;0.154;2023-04-03T13:28:21;103033.38;;;15.85;43.36
70407;BME280;57821;52.202;0.154;2023-04-03T13:34:18;103032.81;;;16.17;42.63
70407;BME280;57821;52.202;0.154;2023-04-03T13:37:07;103035.53;;;16.24;42.45
70407;BME280;57821;52.202;0.154;2023-04-03T13:43:18;103029.47;;;16.30;41.64
70407;BME280;57821;52.202;0.154;2023-04-03T13:49:21;103025.34;;;16.61;41.88
70407;BME280;57821;52.202;0.154;2023-04-03T13:52:26;103022.81;;;16.70;41.11
70407;BME280;57821;52.202;0.154;2023-04-03T13:55:24;103027.25;;;16.84;41.16
70407;BME280;57821;52.202;0.154;2023-04-03T14:01:17;103016.94;;;17.13;40.37
70407;BME280;57821;52.202;0.154;2023-04-03T14:04:23;103016.06;;;17.13;39.28
70407;BME280;57821;52.202;0.154;2023-04-03T14:07:12;103006.38;;;17.01;40.33
70407;BME280;57821;52.202;0.154;2023-04-03T14:09:59;103014.16;;;16.81;39.73
70407;BME280;57821;52.202;0.154;2023-04-03T14:12:46;103008.88;;;16.75;40.34
70407;BME280;57821;52.202;0.154;2023-04-03T14:15:33;103004.59;;;16.88;40.00
70407;BME280;57821;52.202;0.154;2023-04-03T14:18:20;103000.16;;;16.79;40.00
70407;BME280;57821;52.202;0.154;2023-04-03T14:21:07;102992.38;;;16.96;39.97
70407;BME280;57821;52.202;0.154;2023-04-03T14:23:54;102995.19;;;17.33;39.40
70407;BME280;57821;52.202;0.154;2023-04-03T14:26:41;102989.22;;;17.70;39.16
70407;BME280;57821;52.202;0.154;2023-04-03T14:29:28;102979.63;;;18.07;39.09
70407;BME280;57821;52.202;0.154;2023-04-03T14:32:16;102982.25;;;18.39;38.03
70407;BME280;57821;52.202;0.154;2023-04-03T14:35:03;102983.97;;;18.64;38.10
70407;BME280;57821;52.202;0.154;2023-04-03T14:37:52;102975.16;;;18.96;37.35
70407;BME280;57821;52.202;0.154;2023-04-03T14:40:39;102967.09;;;19.31;37.10
70407;BME280;57821;52.202;0.154;2023-04-03T14:43:26;102973.06;;;19.67;36.68
70407;BME280;57821;52.202;0.154;2023-04-03T14:46:15;102972.97;;;19.86;35.32
70407;BME280;57821;52.202;0.154;2023-04-03T14:49:12;102970.25;;;19.96;34.50
70407;BME280;57821;52.202;0.154;2023-04-03T14:52:00;102971.75;;;20.22;34.89
70407;BME280;57821;52.202;0.154;2023-04-03T14:54:48;102970.69;;;20.45;34.91
70407;BME280;57821;52.202;0.154;2023-04-03T14:57:35;102973.22;;;20.58;34.64
70407;BME280;57821;52.202;0.154;2023-04-03T15:00:24;102969.75;;;20.53;33.47
70407;BME280;57821;52.202;0.154;2023-04-03T15:03:19;102954.88;;;20.48;33.37
70407;BME280;57821;52.202;0.154;2023-04-03T15:06:10;102962.03;;;20.34;33.36
70407;BME280;57821;52.202;0.154;2023-04-03T15:08:58;102957.97;;;19.92;33.78
70407;BME280;57821;52.202;0.154;2023-04-03T15:11:45;102954.66;;;19.64;34.17
70407;BME280;57821;52.202;0.154;2023-04-03T15:14:31;102952.13;;;19.49;34.42
70407;BME280;57821;52.202;0.154;2023-04-03T15:17:33;102946.03;;;19.35;34.91
70407;BME280;57821;52.202;0.154;2023-04-03T15:20:23;102941.72;;;19.23;34.25
70407;BME280;57821;52.202;0.154;2023-04-03T15:23:16;102938.28;;;19.05;34.18
70407;BME280;57821;52.202;0.154;2023-04-03T15:26:03;102940.91;;;19.11;34.60
70407;BME280;57821;52.202;0.154;2023-04-03T15:28:51;102934.69;;;19.27;34.47
70407;BME280;57821;52.202;0.154;2023-04-03T15:31:38;102933.78;;;19.28;33.98
70407;BME280;57821;52.202;0.154;2023-04-03T15:34:25;102934.69;;;19.24;33.54
70407;BME280;57821;52.202;0.154;2023-04-03T15:37:11;102931.97;;;19.44;34.01
70407;BME280;57821;52.202;0.154;2023-04-03T15:39:58;102925.75;;;19.58;33.52
70407;BME280;57821;52.202;0.154;2023-04-03T15:42:45;102931.06;;;19.52;33.79
70407;BME280;57821;52.202;0.154;2023-04-03T15:45:33;102919.78;;;19.27;34.20
70407;BME280;57821;52.202;0.154;2023-04-03T15:48:21;102920.75;;;19.11;34.32
70407;BME280;57821;52.202;0.154;2023-04-03T15:51:08;102926.94;;;19.01;34.60
70407;BME280;57821;52.202;0.154;2023-04-03T15:53:55;102924.31;;;18.94;34.36
70407;BME280;57821;52.202;0.154;2023-04-03T15:56:42;102919.13;;;18.80;33.78
70407;BME280;57821;52.202;0.154;2023-04-03T15:59:29;102930.47;;;18.90;33.53
70407;BME280;57821;52.202;0.154;2023-04-03T16:02:16;102928.69;;;19.04;33.83
70407;BME280;57821;52.202;0.154;2023-04-03T16:05:03;102924.16;;;19.30;33.55
70407;BME280;57821;52.202;0.154;2023-04-03T16:07:50;102932.75;;;19.62;33.07
70407;BME280;57821;52.202;0.154;2023-04-03T16:10:38;102932.53;;;19.91;32.70
70407;BME280;57821;52.202;0.154;2023-04-03T16:13:25;102936.56;;;20.30;32.84
70407;BME280;57821;52.202;0.154;2023-04-03T16:16:12;102946.72;;;20.70;32.17
70407;BME280;57821;52.202;0.154;2023-04-03T16:18:59;102944.75;;;20.90;31.38